createdAt,value
2019-05-23T00:02:32.341Z,100874.53
2019-05-23T00:05:21.185Z,100874.48
2019-05-23T00:08:01.752Z,100878.97
2019-05-23T00:10:44.555Z,100887.83
2019-05-23T00:13:39.968Z,100887.20
2019-05-23T00:16:21.578Z,100893.03
2019-05-23T00:18:59.670Z,100905.34
2019-05-23T00:21:40.107Z,100905.91
2019-05-23T00:24:18.773Z,100907.91
2019-05-23T00:26:58.846Z,100907.73
2019-05-23T00:29:40.338Z,100907.34
2019-05-23T00:32:29.524Z,100913.84
2019-05-23T00:35:07.500Z,100913.84
2019-05-23T00:37:47.595Z,100925.77
2019-05-23T00:40:26.065Z,100921.56
2019-05-23T00:43:06.394Z,100921.37
2019-05-23T00:45:44.143Z,100916.69
2019-05-23T00:48:22.459Z,100911.23
2019-05-23T00:51:04.443Z,100919.84
2019-05-23T00:53:41.569Z,100922.13
2019-05-23T00:56:21.422Z,100931.47
2019-05-23T00:58:59.244Z,100926.80
2019-05-23T01:01:38.020Z,100918.22
2019-05-23T01:04:17.907Z,100925.30
2019-05-23T01:06:57.206Z,100928.67
2019-05-23T01:09:34.881Z,100928.26
2019-05-23T01:12:13.739Z,100936.44
2019-05-23T01:14:52.109Z,100936.44
2019-05-23T01:17:31.512Z,100940.91
2019-05-23T01:20:11.209Z,100932.84
2019-05-23T01:22:49.860Z,100935.09
2019-05-23T01:25:28.471Z,100924.55
2019-05-23T01:28:09.086Z,100925.66
2019-05-23T01:30:49.802Z,100923.87
2019-05-23T01:33:27.860Z,100919.99
2019-05-23T01:36:06.663Z,100926.72
2019-05-23T01:38:44.946Z,100925.58
2019-05-23T01:41:23.655Z,100922.66
2019-05-23T01:44:01.312Z,100929.52
2019-05-23T01:46:41.858Z,100925.25
2019-05-23T01:49:19.756Z,100932.59
2019-05-23T01:51:58.527Z,100934.19
2019-05-23T01:54:36.790Z,100940.75
2019-05-23T01:57:15.730Z,100943.34
2019-05-23T02:00:09.133Z,100941.22
2019-05-23T02:02:39.492Z,100942.42
2019-05-23T02:05:19.101Z,100944.30
2019-05-23T02:07:58.429Z,100941.27
2019-05-23T02:10:37.376Z,100946.38
2019-05-23T02:13:15.425Z,100947.00
2019-05-23T02:15:54.604Z,100948.20
2019-05-23T02:18:33.339Z,100947.77
2019-05-23T02:21:12.115Z,100946.42
2019-05-23T02:23:49.700Z,100942.52
2019-05-23T02:26:27.709Z,100940.53
2019-05-23T02:29:06.353Z,100928.56
2019-05-23T02:31:46.295Z,100924.86
2019-05-23T02:34:23.870Z,100922.05
2019-05-23T02:37:02.617Z,100920.23
2019-05-23T02:39:59.461Z,100921.36
2019-05-23T02:42:44.702Z,100911.37
2019-05-23T02:45:25.965Z,100914.84
2019-05-23T02:48:05.158Z,100915.86
2019-05-23T02:50:53.913Z,100920.20
2019-05-23T02:53:32.866Z,100922.42
2019-05-23T02:56:12.904Z,100917.66
2019-05-23T02:59:06.237Z,100920.98
2019-05-23T03:02:16.023Z,100915.63
2019-05-23T03:04:56.117Z,100912.63
2019-05-23T03:07:36.350Z,100918.24
2019-05-23T03:10:14.654Z,100913.62
2019-05-23T03:12:54.383Z,100916.81
2019-05-23T03:15:34.467Z,100917.36
2019-05-23T03:18:11.652Z,100917.86
2019-05-23T03:20:51.502Z,100921.09
2019-05-23T03:23:29.888Z,100922.89
2019-05-23T03:26:41.714Z,100926.48
2019-05-23T03:29:20.160Z,100926.10
2019-05-23T03:32:05.120Z,100922.96
2019-05-23T03:34:46.683Z,100922.70
2019-05-23T03:37:25.195Z,100924.63
2019-05-23T03:40:03.093Z,100925.28
2019-05-23T03:42:41.599Z,100922.78
2019-05-23T03:45:25.261Z,100923.77
2019-05-23T03:48:02.597Z,100924.64
2019-05-23T03:50:40.550Z,100916.17
2019-05-23T03:53:18.088Z,100910.76
2019-05-23T03:55:56.141Z,100897.08
2019-05-23T03:58:37.045Z,100897.73
2019-05-23T04:01:16.377Z,100902.88
2019-05-23T04:03:55.716Z,100907.34
2019-05-23T04:06:35.361Z,100896.87
2019-05-23T04:09:14.382Z,100903.33
2019-05-23T04:11:51.855Z,100900.55
2019-05-23T04:14:29.621Z,100895.41
2019-05-23T04:17:11.736Z,100899.77
2019-05-23T04:19:49.296Z,100886.47
2019-05-23T04:22:27.153Z,100879.30
2019-05-23T04:25:04.375Z,100882.03
2019-05-23T04:27:42.796Z,100883.38
2019-05-23T04:30:21.066Z,100881.40
2019-05-23T04:32:59.109Z,100878.28
2019-05-23T04:35:36.572Z,100875.20
2019-05-23T04:38:17.455Z,100868.63
2019-05-23T04:40:54.238Z,100874.98
2019-05-23T04:43:31.609Z,100867.56
2019-05-23T04:46:09.527Z,100860.52
2019-05-23T04:48:48.030Z,100851.52
2019-05-23T04:51:27.353Z,100853.17
2019-05-23T04:54:06.483Z,100851.48
2019-05-23T04:56:44.454Z,100841.27
2019-05-23T04:59:23.214Z,100835.31
2019-05-23T05:02:00.777Z,100831.32
2019-05-23T05:04:38.739Z,100830.50
2019-05-23T05:07:16.729Z,100825.23
2019-05-23T05:09:55.968Z,100811.25
2019-05-23T05:12:34.988Z,100807.86
2019-05-23T05:15:12.775Z,100803.94
2019-05-23T05:17:50.020Z,100798.63
2019-05-23T05:20:27.773Z,100792.53
2019-05-23T05:23:05.061Z,100784.30
2019-05-23T05:25:43.355Z,100779.14
2019-05-23T05:28:20.763Z,100768.65
2019-05-23T05:30:59.152Z,100772.86
2019-05-23T05:33:36.813Z,100768.77
2019-05-23T05:36:14.089Z,100759.88
2019-05-23T05:38:51.357Z,100752.17
2019-05-23T05:41:32.948Z,100743.89
2019-05-23T05:44:12.031Z,100742.27
2019-05-23T05:46:49.648Z,100737.80
2019-05-23T05:49:27.814Z,100734.38
2019-05-23T05:52:06.588Z,100727.17
2019-05-23T05:54:44.087Z,100721.09
2019-05-23T05:57:21.862Z,100722.55
2019-05-23T06:00:00.104Z,100719.52
2019-05-23T06:02:39.066Z,100715.16
2019-05-23T06:05:25.529Z,100722.25
2019-05-23T06:08:04.000Z,100722.64
2019-05-23T06:10:41.923Z,100718.95
2019-05-23T06:13:20.713Z,100707.51
2019-05-23T06:15:58.867Z,100701.99
2019-05-23T06:18:36.312Z,100694.89
2019-05-23T06:21:15.707Z,100700.64
2019-05-23T06:23:53.660Z,100696.61
2019-05-23T06:26:31.130Z,100688.01
2019-05-23T06:29:09.786Z,100684.33
2019-05-23T06:31:47.583Z,100675.62
2019-05-23T06:34:27.218Z,100673.63
2019-05-23T06:37:05.389Z,100651.57
2019-05-23T06:39:43.607Z,100655.08
2019-05-23T06:42:21.400Z,100642.30
2019-05-23T06:45:00.054Z,100633.48
2019-05-23T06:47:38.471Z,100625.09
2019-05-23T06:50:19.770Z,100614.88
2019-05-23T06:52:57.118Z,100589.23
2019-05-23T06:55:35.705Z,100589.23
2019-05-23T06:58:13.651Z,100583.27
2019-05-23T07:00:51.304Z,100580.68
2019-05-23T07:03:41.602Z,100578.83
2019-05-23T07:06:08.559Z,100582.27
2019-05-23T07:08:46.771Z,100584.69
2019-05-23T07:11:25.565Z,100580.19
2019-05-23T07:14:02.905Z,100588.20
2019-05-23T07:16:40.755Z,100593.37
2019-05-23T07:19:19.401Z,100595.03
2019-05-23T07:21:57.105Z,100584.52
2019-05-23T07:24:34.918Z,100579.53
2019-05-23T07:27:13.304Z,100580.59
2019-05-23T07:29:50.598Z,100576.25
2019-05-23T07:32:28.444Z,100586.23
2019-05-23T07:35:05.220Z,100579.14
2019-05-23T07:37:43.252Z,100574.73
2019-05-23T07:40:21.006Z,100562.47
2019-05-23T07:42:59.303Z,100555.86
2019-05-23T07:45:42.359Z,100552.23
2019-05-23T07:48:20.403Z,100549.71
2019-05-23T07:50:58.792Z,100556.98
2019-05-23T07:53:54.381Z,100562.83
2019-05-23T07:56:34.279Z,100559.67
2019-05-23T07:59:14.738Z,100553.69
2019-05-23T08:01:57.587Z,100559.41
2019-05-23T08:04:35.373Z,100553.05
2019-05-23T08:07:14.155Z,100553.39
2019-05-23T08:09:53.068Z,100537.76
2019-05-23T08:12:30.274Z,100552.55
2019-05-23T08:15:08.634Z,100558.58
2019-05-23T08:17:46.048Z,100562.16
2019-05-23T08:20:28.503Z,100565.07
2019-05-23T08:23:07.043Z,100554.32
2019-05-23T08:25:44.329Z,100554.84
2019-05-23T08:28:22.287Z,100554.33
2019-05-23T08:31:01.067Z,100548.96
2019-05-23T08:33:39.497Z,100547.76
2019-05-23T08:36:16.678Z,100547.61
2019-05-23T08:38:54.408Z,100546.14
2019-05-23T08:41:34.527Z,100553.83
2019-05-23T08:44:11.974Z,100554.35
2019-05-23T08:46:49.477Z,100553.52
2019-05-23T08:49:27.225Z,100550.93
2019-05-23T08:52:05.842Z,100558.81
2019-05-23T08:54:45.082Z,100548.68
2019-05-23T08:57:23.946Z,100558.73
2019-05-23T09:00:01.205Z,100548.02
2019-05-23T09:02:41.541Z,100558.47
2019-05-23T09:05:20.135Z,100557.48
2019-05-23T09:07:58.129Z,100568.83
2019-05-23T09:10:37.286Z,100567.98
2019-05-23T09:13:15.477Z,100570.91
2019-05-23T09:15:54.028Z,100572.34
2019-05-23T09:18:32.107Z,100564.52
2019-05-23T09:21:09.948Z,100562.25
2019-05-23T09:23:48.556Z,100572.05
2019-05-23T09:26:28.272Z,100592.34
2019-05-23T09:29:07.680Z,100604.59
2019-05-23T09:31:45.162Z,100613.17
2019-05-23T09:34:40.331Z,100620.17
2019-05-23T09:37:19.429Z,100626.22
2019-05-23T09:39:57.007Z,100629.29
2019-05-23T09:42:34.185Z,100636.75
2019-05-23T09:45:12.389Z,100632.14
2019-05-23T09:47:51.217Z,100638.32
2019-05-23T09:50:29.224Z,100647.89
2019-05-23T09:53:06.753Z,100653.56
2019-05-23T09:55:45.604Z,100649.62
2019-05-23T09:58:23.662Z,100651.23
2019-05-23T10:01:01.481Z,100654.83
2019-05-23T10:03:39.184Z,100668.21
2019-05-23T10:06:17.166Z,100691.31
2019-05-23T10:08:56.216Z,100703.62
2019-05-23T10:11:34.380Z,100714.43
2019-05-23T10:14:15.578Z,100713.77
2019-05-23T10:16:53.341Z,100715.36
2019-05-23T10:19:30.562Z,100714.90
2019-05-23T10:22:08.343Z,100713.38
2019-05-23T10:24:46.311Z,100722.93
2019-05-23T10:27:24.705Z,100736.51
2019-05-23T10:30:03.204Z,100739.48
2019-05-23T10:32:40.723Z,100745.63
2019-05-23T10:35:18.251Z,100744.30
2019-05-23T10:37:56.884Z,100739.75
2019-05-23T10:40:34.458Z,100740.65
2019-05-23T10:43:12.279Z,100738.75
2019-05-23T10:45:50.360Z,100752.70
2019-05-23T10:48:29.423Z,100764.58
2019-05-23T10:51:07.391Z,100774.62
2019-05-23T10:53:45.123Z,100776.06
2019-05-23T10:56:22.605Z,100780.93
2019-05-23T10:59:00.215Z,100789.83
2019-05-23T11:01:38.518Z,100796.52
2019-05-23T11:04:16.348Z,100782.17
2019-05-23T11:06:53.999Z,100793.23
2019-05-23T11:09:37.738Z,100793.45
2019-05-23T11:12:11.774Z,100802.59
2019-05-23T11:14:49.211Z,100800.78
2019-05-23T11:17:26.709Z,100804.89
2019-05-23T11:20:04.661Z,100803.37
2019-05-23T11:22:42.191Z,100795.94
2019-05-23T11:25:20.021Z,100787.36
2019-05-23T11:27:57.365Z,100780.78
2019-05-23T11:30:45.480Z,100768.47
2019-05-23T11:33:24.743Z,100792.45
2019-05-23T11:36:02.525Z,100800.99
2019-05-23T11:38:40.218Z,100800.27
2019-05-23T11:41:18.781Z,100812.77
2019-05-23T11:43:55.726Z,100815.83
2019-05-23T11:46:36.659Z,100812.43
2019-05-23T11:49:14.453Z,100801.70
2019-05-23T11:51:53.560Z,100797.48
2019-05-23T11:54:31.180Z,100790.23
2019-05-23T11:57:10.986Z,100791.55
2019-05-23T11:59:48.519Z,100795.66
2019-05-23T12:02:33.645Z,100796.75
2019-05-23T12:05:16.608Z,100808.70
2019-05-23T12:07:55.403Z,100807.53
2019-05-23T12:10:35.691Z,100801.03
2019-05-23T12:13:14.663Z,100795.45
2019-05-23T12:15:53.209Z,100798.19
2019-05-23T12:18:30.731Z,100795.45
2019-05-23T12:21:08.136Z,100798.48
2019-05-23T12:23:47.213Z,100805.17
2019-05-23T12:26:24.912Z,100809.87
2019-05-23T12:29:02.326Z,100823.31
2019-05-23T12:31:39.678Z,100829.73
2019-05-23T12:34:18.461Z,100834.12
2019-05-23T12:37:16.845Z,100835.06
2019-05-23T12:39:36.630Z,100832.09
2019-05-23T12:42:13.647Z,100827.32
2019-05-23T12:44:51.886Z,100822.95
2019-05-23T12:47:47.465Z,100824.12
2019-05-23T12:50:28.925Z,100828.77
2019-05-23T12:53:06.390Z,100826.64
2019-05-23T12:55:44.602Z,100823.02
2019-05-23T12:58:22.589Z,100822.21
2019-05-23T13:01:03.075Z,100831.89
2019-05-23T13:03:40.717Z,100831.83
2019-05-23T13:06:19.589Z,100836.05
2019-05-23T13:08:58.669Z,100845.39
2019-05-23T13:11:37.422Z,100855.17
2019-05-23T13:14:16.466Z,100857.59
2019-05-23T13:17:00.409Z,100869.05
2019-05-23T13:19:35.529Z,100875.42
2019-05-23T13:22:12.957Z,100879.34
2019-05-23T13:24:53.134Z,100880.58
2019-05-23T13:27:33.562Z,100889.16
2019-05-23T13:30:11.112Z,100895.46
2019-05-23T13:32:49.717Z,100904.69
2019-05-23T13:35:27.950Z,100904.63
2019-05-23T13:38:05.175Z,100920.72
2019-05-23T13:40:43.667Z,100930.44
2019-05-23T13:43:24.595Z,100934.27
2019-05-23T13:46:02.098Z,100931.53
2019-05-23T13:48:42.508Z,100935.65
2019-05-23T13:51:19.683Z,100931.07
2019-05-23T13:53:57.235Z,100935.33
2019-05-23T13:56:34.473Z,100934.66
2019-05-23T13:59:12.683Z,100946.72
2019-05-23T14:01:50.250Z,100949.04
2019-05-23T14:04:29.663Z,100946.72
2019-05-23T14:07:09.812Z,100927.07
2019-05-23T14:09:48.129Z,100945.38
2019-05-23T14:12:28.431Z,100955.48
2019-05-23T14:15:07.848Z,100956.27
2019-05-23T14:17:46.214Z,100959.53
2019-05-23T14:20:25.761Z,100964.81
2019-05-23T14:23:09.038Z,100968.16
2019-05-23T14:25:50.910Z,100961.94
2019-05-23T14:28:29.237Z,100956.67
2019-05-23T14:31:25.306Z,100962.29
2019-05-23T14:34:07.904Z,100959.02
2019-05-23T14:36:55.223Z,100955.90
2019-05-23T14:39:50.525Z,100957.52
2019-05-23T14:42:53.182Z,100960.52
2019-05-23T14:45:46.837Z,100959.13
2019-05-23T14:48:43.481Z,100967.39
2019-05-23T14:51:38.985Z,100967.06
2019-05-23T14:54:24.539Z,100959.41
2019-05-23T14:57:02.147Z,100958.20
2019-05-23T14:59:40.271Z,100965.15
2019-05-23T15:02:20.945Z,100960.93
2019-05-23T15:04:59.803Z,100962.95
2019-05-23T15:07:37.876Z,100951.34
2019-05-23T15:10:16.171Z,100959.86
2019-05-23T15:12:55.009Z,100959.02
2019-05-23T15:15:33.824Z,100961.78
2019-05-23T15:18:11.368Z,100970.62
2019-05-23T15:20:49.691Z,100969.53
2019-05-23T15:23:27.487Z,100969.30
2019-05-23T15:26:21.543Z,100974.38
2019-05-23T15:28:46.223Z,100974.98
2019-05-23T15:31:24.207Z,100977.73
2019-05-23T15:34:01.723Z,100981.27
2019-05-23T15:36:40.315Z,100972.25
2019-05-23T15:39:19.498Z,100978.23
2019-05-23T15:41:56.750Z,100968.81
2019-05-23T15:44:35.749Z,100970.94
2019-05-23T15:47:13.520Z,100972.27
2019-05-23T15:49:51.781Z,100976.75
2019-05-23T15:52:54.025Z,100973.64
2019-05-23T15:55:55.562Z,100965.22
2019-05-23T15:58:49.921Z,100965.02
2019-05-23T16:01:34.259Z,100958.50
2019-05-23T16:04:14.142Z,100960.45
2019-05-23T16:06:51.964Z,100963.72
2019-05-23T16:09:31.351Z,100957.52
2019-05-23T16:12:10.191Z,100952.27
2019-05-23T16:14:49.421Z,100954.28
2019-05-23T16:17:27.662Z,100956.84
2019-05-23T16:20:05.830Z,100952.44
2019-05-23T16:22:43.747Z,100953.74
2019-05-23T16:25:21.255Z,100948.31
2019-05-23T16:27:58.912Z,100952.43
2019-05-23T16:30:37.623Z,100956.23
2019-05-23T16:33:14.841Z,100955.12
2019-05-23T16:35:52.284Z,100947.47
2019-05-23T16:38:29.970Z,100949.99
2019-05-23T16:41:11.307Z,100948.18
2019-05-23T16:43:47.820Z,100942.75
2019-05-23T16:46:27.228Z,100945.64
2019-05-23T16:49:04.782Z,100948.25
2019-05-23T16:51:42.407Z,100949.81
2019-05-23T16:54:21.013Z,100941.33
2019-05-23T16:57:16.809Z,100937.63
2019-05-23T17:00:12.430Z,100934.96
2019-05-23T17:03:15.301Z,100931.38
2019-05-23T17:06:07.439Z,100918.49
2019-05-23T17:09:03.033Z,100911.24
2019-05-23T17:12:09.037Z,100908.80
2019-05-23T17:15:14.499Z,100895.84
2019-05-23T17:18:05.646Z,100897.98
2019-05-23T17:20:58.839Z,100891.73
2019-05-23T17:24:03.860Z,100892.60
2019-05-23T17:26:59.891Z,100885.45
2019-05-23T17:29:51.959Z,100881.48
2019-05-23T17:32:36.236Z,100887.30
2019-05-23T17:35:14.707Z,100873.05
2019-05-23T17:37:52.763Z,100864.53
2019-05-23T17:40:32.158Z,100863.50
2019-05-23T17:43:11.289Z,100864.09
2019-05-23T17:45:48.923Z,100860.41
2019-05-23T17:48:27.905Z,100863.41
2019-05-23T17:51:05.016Z,100852.22
2019-05-23T17:53:43.047Z,100847.47
2019-05-23T17:56:20.339Z,100846.48
2019-05-23T17:58:58.569Z,100836.38
2019-05-23T18:01:38.959Z,100835.03
2019-05-23T18:04:18.079Z,100826.48
2019-05-23T18:06:55.416Z,100823.66
2019-05-23T18:09:33.975Z,100818.70
2019-05-23T18:12:11.437Z,100815.81
2019-05-23T18:14:49.033Z,100808.02
2019-05-23T18:17:27.231Z,100801.13
2019-05-23T18:20:09.776Z,100796.16
2019-05-23T18:22:49.902Z,100786.91
2019-05-23T18:25:28.614Z,100783.41
2019-05-23T18:28:06.320Z,100771.37
2019-05-23T18:30:58.194Z,100767.45
2019-05-23T18:33:35.756Z,100768.11
2019-05-23T18:36:13.630Z,100768.14
2019-05-23T18:38:51.360Z,100760.73
2019-05-23T18:41:30.017Z,100762.81
2019-05-23T18:44:07.439Z,100750.36
2019-05-23T18:46:50.673Z,100761.52
2019-05-23T18:49:28.194Z,100755.80
2019-05-23T18:52:07.736Z,100740.92
2019-05-23T18:54:45.524Z,100748.06
2019-05-23T18:57:24.180Z,100751.12
2019-05-23T19:00:01.463Z,100753.13
2019-05-23T19:02:41.328Z,100748.42
2019-05-23T19:05:19.157Z,100743.46
2019-05-23T19:07:58.045Z,100739.78
2019-05-23T19:10:34.984Z,100731.19
2019-05-23T19:13:12.967Z,100725.39
2019-05-23T19:15:50.231Z,100721.95
2019-05-23T19:18:30.379Z,100714.19
2019-05-23T19:21:09.296Z,100709.66
2019-05-23T19:23:49.266Z,100706.09
2019-05-23T19:26:26.331Z,100704.61
2019-05-23T19:29:03.758Z,100698.00
2019-05-23T19:31:41.537Z,100695.51
2019-05-23T19:34:20.279Z,100686.38
2019-05-23T19:36:57.799Z,100680.06
2019-05-23T19:39:40.499Z,100674.27
2019-05-23T19:42:19.440Z,100671.59
2019-05-23T19:44:58.015Z,100670.06
2019-05-23T19:47:35.668Z,100669.39
2019-05-23T19:50:13.324Z,100670.09
2019-05-23T19:52:50.817Z,100667.74
2019-05-23T19:55:31.553Z,100662.97
2019-05-23T19:58:10.961Z,100665.73
2019-05-23T20:00:50.491Z,100661.34
2019-05-23T20:03:32.487Z,100669.39
2019-05-23T20:06:09.590Z,100670.61
2019-05-23T20:08:48.127Z,100668.84
2019-05-23T20:11:25.526Z,100670.23
2019-05-23T20:14:02.629Z,100669.59
2019-05-23T20:16:40.979Z,100669.88
2019-05-23T20:19:18.120Z,100666.83
2019-05-23T20:21:57.235Z,100668.45
2019-05-23T20:24:34.742Z,100671.30
2019-05-23T20:27:14.536Z,100676.08
2019-05-23T20:29:52.076Z,100668.98
2019-05-23T20:32:29.501Z,100667.39
2019-05-23T20:35:06.983Z,100672.03
2019-05-23T20:37:46.360Z,100672.70
2019-05-23T20:40:24.621Z,100679.20
2019-05-23T20:43:02.713Z,100676.14
2019-05-23T20:45:40.046Z,100678.47
2019-05-23T20:48:18.801Z,100672.45
2019-05-23T20:50:56.628Z,100670.97
2019-05-23T20:53:34.601Z,100669.78
2019-05-23T20:56:11.781Z,100669.22
2019-05-23T20:58:50.884Z,100674.56
2019-05-23T21:01:35.770Z,100680.07
2019-05-23T21:04:13.481Z,100683.69
2019-05-23T21:06:50.833Z,100681.67
2019-05-23T21:09:28.484Z,100685.76
2019-05-23T21:12:05.863Z,100683.73
2019-05-23T21:14:43.253Z,100683.21
2019-05-23T21:17:20.839Z,100693.16
2019-05-23T21:20:04.782Z,100693.84
2019-05-23T21:22:43.914Z,100697.20
2019-05-23T21:25:21.687Z,100695.43
2019-05-23T21:28:01.385Z,100704.73
2019-05-23T21:30:42.637Z,100703.91
2019-05-23T21:33:20.322Z,100705.59
2019-05-23T21:35:58.434Z,100709.62
2019-05-23T21:38:36.467Z,100707.91
2019-05-23T21:41:15.037Z,100704.59
2019-05-23T21:43:53.893Z,100710.54
2019-05-23T21:46:31.693Z,100714.75
2019-05-23T21:49:09.213Z,100709.77
2019-05-23T21:51:47.323Z,100718.78
2019-05-23T21:54:24.655Z,100719.17
2019-05-23T21:57:03.117Z,100717.35
2019-05-23T21:59:41.719Z,100724.22
2019-05-23T22:02:37.288Z,100720.81
2019-05-23T22:05:18.086Z,100722.33
2019-05-23T22:07:56.220Z,100721.56
2019-05-23T22:10:33.912Z,100730.41
2019-05-23T22:13:11.803Z,100730.41
2019-05-23T22:15:49.263Z,100731.77
2019-05-23T22:18:27.765Z,100736.52
2019-05-23T22:21:05.443Z,100736.56
2019-05-23T22:23:44.939Z,100736.27
2019-05-23T22:26:23.019Z,100746.59
2019-05-23T22:29:00.773Z,100743.88
2019-05-23T22:31:41.926Z,100740.65
2019-05-23T22:34:36.786Z,100744.66
2019-05-23T22:37:18.289Z,100753.05
2019-05-23T22:39:56.360Z,100749.65
2019-05-23T22:42:34.826Z,100753.38
2019-05-23T22:45:17.005Z,100753.94
2019-05-23T22:47:54.423Z,100760.78
2019-05-23T22:50:32.084Z,100758.02
2019-05-23T22:53:09.587Z,100760.69
2019-05-23T22:55:47.506Z,100763.44
2019-05-23T22:58:24.853Z,100774.38
2019-05-23T23:01:02.509Z,100778.41
2019-05-23T23:03:39.948Z,100776.61
2019-05-23T23:06:20.186Z,100781.94
2019-05-23T23:08:56.969Z,100779.31
2019-05-23T23:11:35.052Z,100785.66
2019-05-23T23:14:12.563Z,100794.78
2019-05-23T23:16:52.345Z,100791.84
2019-05-23T23:19:30.123Z,100803.98
2019-05-23T23:22:07.536Z,100811.84
2019-05-23T23:24:45.669Z,100812.27
2019-05-23T23:27:23.702Z,100816.10
2019-05-23T23:30:01.254Z,100825.79
2019-05-23T23:32:39.034Z,100825.22
2019-05-23T23:35:17.004Z,100818.07
2019-05-23T23:37:56.911Z,100825.98
2019-05-23T23:40:34.430Z,100831.36
2019-05-23T23:43:14.856Z,100838.91
2019-05-23T23:46:09.829Z,100840.55
2019-05-23T23:49:07.584Z,100847.46
2019-05-23T23:52:01.875Z,100848.99
2019-05-23T23:54:56.967Z,100851.52
2019-05-23T23:57:52.351Z,100857.72
